sensor_id;sensor_type;location;lat;lon;timestamp;P1;durP1;ratioP1;P2;durP2;ratioP2
8230;SDS011;4156;50.908;6.974;2023-01-06T00:01:27;2.10;;;1.90;;
8230;SDS011;4156;50.908;6.974;2023-01-06T00:03:53;1.97;;;1.77;;
8230;SDS011;4156;50.908;6.974;2023-01-06T00:06:23;3.13;;;1.90;;
8230;SDS011;4156;50.908;6.974;2023-01-06T00:08:52;2.57;;;2.10;;
8230;SDS011;4156;50.908;6.974;2023-01-06T00:11:18;2.83;;;2.00;;
8230;SDS011;4156;50.908;6.974;2023-01-06T00:13:44;2.33;;;2.10;;
8230;SDS011;4156;50.908;6.974;2023-01-06T00:16:11;2.30;;;2.00;;
8230;SDS011;4156;50.908;6.974;2023-01-06T00:18:38;2.50;;;2.17;;
8230;SDS011;4156;50.908;6.974;2023-01-06T00:21:04;2.50;;;2.00;;
8230;SDS011;4156;50.908;6.974;2023-01-06T00:23:31;3.70;;;2.20;;
8230;SDS011;4156;50.908;6.974;2023-01-06T00:25:57;2.60;;;2.20;;
8230;SDS011;4156;50.908;6.974;2023-01-06T00:28:23;2.40;;;2.03;;
8230;SDS011;4156;50.908;6.974;2023-01-06T00:30:48;2.77;;;2.07;;
8230;SDS011;4156;50.908;6.974;2023-01-06T00:33:14;3.83;;;2.30;;
8230;SDS011;4156;50.908;6.974;2023-01-06T00:35:39;2.60;;;2.33;;
8230;SDS011;4156;50.908;6.974;2023-01-06T00:38:05;2.90;;;2.13;;
8230;SDS011;4156;50.908;6.974;2023-01-06T00:40:31;2.20;;;2.00;;
8230;SDS011;4156;50.908;6.974;2023-01-06T00:42:56;2.73;;;2.30;;
8230;SDS011;4156;50.908;6.974;2023-01-06T00:45:22;3.70;;;2.10;;
8230;SDS011;4156;50.908;6.974;2023-01-06T00:47:47;2.83;;;2.10;;
8230;SDS011;4156;50.908;6.974;2023-01-06T00:50:13;3.33;;;2.10;;
8230;SDS011;4156;50.908;6.974;2023-01-06T00:52:38;2.23;;;1.93;;
8230;SDS011;4156;50.908;6.974;2023-01-06T00:55:04;2.70;;;2.00;;
8230;SDS011;4156;50.908;6.974;2023-01-06T00:57:31;2.40;;;1.90;;
8230;SDS011;4156;50.908;6.974;2023-01-06T00:59:56;2.90;;;2.07;;
8230;SDS011;4156;50.908;6.974;2023-01-06T01:02:22;2.30;;;2.10;;
8230;SDS011;4156;50.908;6.974;2023-01-06T01:04:47;2.77;;;1.90;;
8230;SDS011;4156;50.908;6.974;2023-01-06T01:07:13;3.93;;;2.03;;
8230;SDS011;4156;50.908;6.974;2023-01-06T01:09:39;2.30;;;2.10;;
8230;SDS011;4156;50.908;6.974;2023-01-06T01:12:05;3.17;;;2.00;;
8230;SDS011;4156;50.908;6.974;2023-01-06T01:14:34;2.40;;;1.73;;
8230;SDS011;4156;50.908;6.974;2023-01-06T01:17:00;3.23;;;2.10;;
8230;SDS011;4156;50.908;6.974;2023-01-06T01:19:26;2.67;;;2.00;;
8230;SDS011;4156;50.908;6.974;2023-01-06T01:21:52;2.57;;;2.17;;
8230;SDS011;4156;50.908;6.974;2023-01-06T01:24:18;2.20;;;2.00;;
8230;SDS011;4156;50.908;6.974;2023-01-06T01:26:44;3.13;;;1.93;;
8230;SDS011;4156;50.908;6.974;2023-01-06T01:29:11;3.27;;;1.93;;
8230;SDS011;4156;50.908;6.974;2023-01-06T01:31:38;2.33;;;1.77;;
8230;SDS011;4156;50.908;6.974;2023-01-06T01:34:04;2.47;;;1.73;;
8230;SDS011;4156;50.908;6.974;2023-01-06T01:36:31;3.20;;;1.80;;
8230;SDS011;4156;50.908;6.974;2023-01-06T01:38:56;7.57;;;1.80;;
8230;SDS011;4156;50.908;6.974;2023-01-06T01:41:22;3.33;;;2.10;;
8230;SDS011;4156;50.908;6.974;2023-01-06T01:43:53;2.10;;;1.70;;
8230;SDS011;4156;50.908;6.974;2023-01-06T01:46:26;2.47;;;1.80;;
8230;SDS011;4156;50.908;6.974;2023-01-06T01:49:02;2.17;;;1.70;;
8230;SDS011;4156;50.908;6.974;2023-01-06T01:51:36;2.10;;;1.80;;
8230;SDS011;4156;50.908;6.974;2023-01-06T01:54:07;2.37;;;1.97;;
8230;SDS011;4156;50.908;6.974;2023-01-06T01:56:36;6.03;;;2.17;;
8230;SDS011;4156;50.908;6.974;2023-01-06T01:59:14;2.17;;;1.80;;
8230;SDS011;4156;50.908;6.974;2023-01-06T02:01:47;2.53;;;1.73;;
8230;SDS011;4156;50.908;6.974;2023-01-06T02:04:13;2.93;;;1.90;;
8230;SDS011;4156;50.908;6.974;2023-01-06T02:06:40;3.43;;;1.80;;
8230;SDS011;4156;50.908;6.974;2023-01-06T02:09:26;2.57;;;1.80;;
8230;SDS011;4156;50.908;6.974;2023-01-06T02:11:57;3.53;;;1.70;;
8230;SDS011;4156;50.908;6.974;2023-01-06T02:14:23;4.10;;;1.93;;
8230;SDS011;4156;50.908;6.974;2023-01-06T02:22:24;5.70;;;1.83;;
8230;SDS011;4156;50.908;6.974;2023-01-06T02:30:28;3.70;;;1.70;;
8230;SDS011;4156;50.908;6.974;2023-01-06T02:33:30;4.33;;;1.80;;
8230;SDS011;4156;50.908;6.974;2023-01-06T02:41:25;2.73;;;1.87;;
8230;SDS011;4156;50.908;6.974;2023-01-06T02:46:34;4.43;;;1.90;;
8230;SDS011;4156;50.908;6.974;2023-01-06T02:49:14;3.17;;;1.70;;
8230;SDS011;4156;50.908;6.974;2023-01-06T02:52:08;4.30;;;1.63;;
8230;SDS011;4156;50.908;6.974;2023-01-06T02:57:17;2.27;;;1.80;;
8230;SDS011;4156;50.908;6.974;2023-01-06T02:59:50;5.00;;;1.60;;
8230;SDS011;4156;50.908;6.974;2023-01-06T03:02:34;3.80;;;1.83;;
8230;SDS011;4156;50.908;6.974;2023-01-06T03:05:02;3.70;;;1.80;;
8230;SDS011;4156;50.908;6.974;2023-01-06T03:07:30;4.73;;;1.90;;
8230;SDS011;4156;50.908;6.974;2023-01-06T03:09:57;1.70;;;1.50;;
8230;SDS011;4156;50.908;6.974;2023-01-06T03:12:40;4.90;;;1.70;;
8230;SDS011;4156;50.908;6.974;2023-01-06T03:15:15;2.70;;;1.53;;
8230;SDS011;4156;50.908;6.974;2023-01-06T03:17:40;1.50;;;1.40;;
8230;SDS011;4156;50.908;6.974;2023-01-06T03:20:06;2.17;;;1.57;;
8230;SDS011;4156;50.908;6.974;2023-01-06T03:22:32;2.47;;;1.60;;
8230;SDS011;4156;50.908;6.974;2023-01-06T03:24:59;3.23;;;1.57;;
8230;SDS011;4156;50.908;6.974;2023-01-06T03:27:25;3.83;;;1.63;;
8230;SDS011;4156;50.908;6.974;2023-01-06T03:29:51;4.70;;;1.70;;
8230;SDS011;4156;50.908;6.974;2023-01-06T03:32:21;5.83;;;1.67;;
8230;SDS011;4156;50.908;6.974;2023-01-06T03:43:26;3.03;;;1.40;;
8230;SDS011;4156;50.908;6.974;2023-01-06T03:48:41;1.77;;;1.23;;
8230;SDS011;4156;50.908;6.974;2023-01-06T03:51:29;2.37;;;1.60;;
8230;SDS011;4156;50.908;6.974;2023-01-06T03:56:57;2.23;;;1.40;;
8230;SDS011;4156;50.908;6.974;2023-01-06T03:59:29;4.90;;;1.20;;
8230;SDS011;4156;50.908;6.974;2023-01-06T04:01:59;6.80;;;2.90;;
8230;SDS011;4156;50.908;6.974;2023-01-06T04:04:25;2.90;;;1.43;;
8230;SDS011;4156;50.908;6.974;2023-01-06T04:06:51;2.50;;;1.40;;
8230;SDS011;4156;50.908;6.974;2023-01-06T04:09:17;2.50;;;1.40;;
8230;SDS011;4156;50.908;6.974;2023-01-06T04:11:42;3.27;;;1.40;;
8230;SDS011;4156;50.908;6.974;2023-01-06T04:14:26;2.77;;;1.40;;
8230;SDS011;4156;50.908;6.974;2023-01-06T04:16:52;1.83;;;1.20;;
8230;SDS011;4156;50.908;6.974;2023-01-06T04:19:17;1.30;;;1.20;;
8230;SDS011;4156;50.908;6.974;2023-01-06T04:21:43;3.40;;;1.13;;
8230;SDS011;4156;50.908;6.974;2023-01-06T04:24:08;1.67;;;1.23;;
8230;SDS011;4156;50.908;6.974;2023-01-06T04:26:34;2.23;;;1.33;;
8230;SDS011;4156;50.908;6.974;2023-01-06T04:29:00;2.50;;;1.40;;
8230;SDS011;4156;50.908;6.974;2023-01-06T04:31:26;1.87;;;1.10;;
8230;SDS011;4156;50.908;6.974;2023-01-06T04:33:52;2.40;;;1.20;;
8230;SDS011;4156;50.908;6.974;2023-01-06T04:36:17;3.03;;;1.00;;
8230;SDS011;4156;50.908;6.974;2023-01-06T04:38:44;1.23;;;1.03;;
8230;SDS011;4156;50.908;6.974;2023-01-06T04:41:10;2.60;;;1.20;;
8230;SDS011;4156;50.908;6.974;2023-01-06T04:43:35;1.20;;;1.10;;
8230;SDS011;4156;50.908;6.974;2023-01-06T04:46:01;2.13;;;1.57;;
8230;SDS011;4156;50.908;6.974;2023-01-06T04:48:26;2.30;;;1.20;;
8230;SDS011;4156;50.908;6.974;2023-01-06T04:50:58;0.90;;;0.90;;
8230;SDS011;4156;50.908;6.974;2023-01-06T04:53:28;4.73;;;1.10;;
8230;SDS011;4156;50.908;6.974;2023-01-06T04:55:53;1.20;;;0.90;;
8230;SDS011;4156;50.908;6.974;2023-01-06T04:58:19;1.73;;;1.00;;
8230;SDS011;4156;50.908;6.974;2023-01-06T05:00:44;1.20;;;1.07;;
8230;SDS011;4156;50.908;6.974;2023-01-06T05:03:10;1.67;;;1.00;;
8230;SDS011;4156;50.908;6.974;2023-01-06T05:05:36;1.20;;;1.10;;
8230;SDS011;4156;50.908;6.974;2023-01-06T05:08:02;1.73;;;1.07;;
8230;SDS011;4156;50.908;6.974;2023-01-06T05:10:28;7.60;;;1.53;;
8230;SDS011;4156;50.908;6.974;2023-01-06T05:12:53;2.67;;;1.03;;
8230;SDS011;4156;50.908;6.974;2023-01-06T05:15:19;1.33;;;1.20;;
8230;SDS011;4156;50.908;6.974;2023-01-06T05:17:44;1.17;;;1.07;;
8230;SDS011;4156;50.908;6.974;2023-01-06T05:20:10;2.23;;;1.00;;
8230;SDS011;4156;50.908;6.974;2023-01-06T05:22:35;3.57;;;1.50;;
8230;SDS011;4156;50.908;6.974;2023-01-06T05:25:01;3.93;;;1.27;;
8230;SDS011;4156;50.908;6.974;2023-01-06T05:27:27;0.90;;;0.90;;
8230;SDS011;4156;50.908;6.974;2023-01-06T05:29:53;2.03;;;1.43;;
8230;SDS011;4156;50.908;6.974;2023-01-06T05:32:18;0.87;;;0.87;;
8230;SDS011;4156;50.908;6.974;2023-01-06T05:34:44;1.30;;;1.20;;
8230;SDS011;4156;50.908;6.974;2023-01-06T05:37:09;1.27;;;1.10;;
8230;SDS011;4156;50.908;6.974;2023-01-06T05:39:35;1.40;;;1.10;;
8230;SDS011;4156;50.908;6.974;2023-01-06T05:42:00;1.57;;;1.07;;
8230;SDS011;4156;50.908;6.974;2023-01-06T05:44:26;2.03;;;1.00;;
8230;SDS011;4156;50.908;6.974;2023-01-06T05:46:51;1.50;;;1.03;;
8230;SDS011;4156;50.908;6.974;2023-01-06T05:49:17;0.90;;;0.90;;
8230;SDS011;4156;50.908;6.974;2023-01-06T05:51:42;2.57;;;1.17;;
8230;SDS011;4156;50.908;6.974;2023-01-06T05:54:07;1.73;;;1.20;;
8230;SDS011;4156;50.908;6.974;2023-01-06T05:56:33;2.03;;;1.13;;
8230;SDS011;4156;50.908;6.974;2023-01-06T05:58:59;1.77;;;1.20;;
8230;SDS011;4156;50.908;6.974;2023-01-06T06:01:27;1.77;;;1.20;;
8230;SDS011;4156;50.908;6.974;2023-01-06T06:03:55;1.80;;;1.20;;
8230;SDS011;4156;50.908;6.974;2023-01-06T06:06:22;1.10;;;0.90;;
8230;SDS011;4156;50.908;6.974;2023-01-06T06:08:48;2.90;;;1.10;;
8230;SDS011;4156;50.908;6.974;2023-01-06T06:11:15;3.40;;;1.30;;
8230;SDS011;4156;50.908;6.974;2023-01-06T06:13:46;1.80;;;1.17;;
8230;SDS011;4156;50.908;6.974;2023-01-06T06:16:13;1.20;;;1.10;;
8230;SDS011;4156;50.908;6.974;2023-01-06T06:18:40;2.87;;;1.10;;
8230;SDS011;4156;50.908;6.974;2023-01-06T06:21:13;2.23;;;1.30;;
8230;SDS011;4156;50.908;6.974;2023-01-06T06:23:40;1.83;;;1.30;;
8230;SDS011;4156;50.908;6.974;2023-01-06T06:26:06;1.27;;;1.10;;
8230;SDS011;4156;50.908;6.974;2023-01-06T06:28:33;2.30;;;1.03;;
8230;SDS011;4156;50.908;6.974;2023-01-06T06:31:06;1.87;;;1.47;;
8230;SDS011;4156;50.908;6.974;2023-01-06T06:33:33;1.10;;;1.00;;
8230;SDS011;4156;50.908;6.974;2023-01-06T06:35:59;3.57;;;1.20;;
8230;SDS011;4156;50.908;6.974;2023-01-06T06:38:25;4.20;;;1.20;;
8230;SDS011;4156;50.908;6.974;2023-01-06T06:40:51;2.27;;;1.17;;
8230;SDS011;4156;50.908;6.974;2023-01-06T06:43:17;2.10;;;1.10;;
8230;SDS011;4156;50.908;6.974;2023-01-06T06:45:44;1.23;;;0.90;;
8230;SDS011;4156;50.908;6.974;2023-01-06T06:48:10;2.50;;;1.47;;
8230;SDS011;4156;50.908;6.974;2023-01-06T06:50:35;1.10;;;1.00;;
8230;SDS011;4156;50.908;6.974;2023-01-06T06:53:01;1.30;;;1.10;;
8230;SDS011;4156;50.908;6.974;2023-01-06T06:55:26;1.67;;;1.20;;
8230;SDS011;4156;50.908;6.974;2023-01-06T06:57:52;1.23;;;1.10;;
8230;SDS011;4156;50.908;6.974;2023-01-06T07:00:17;1.10;;;1.00;;
8230;SDS011;4156;50.908;6.974;2023-01-06T07:02:46;2.53;;;1.10;;
8230;SDS011;4156;50.908;6.974;2023-01-06T07:05:12;1.30;;;1.10;;
8230;SDS011;4156;50.908;6.974;2023-01-06T07:07:38;1.53;;;1.20;;
8230;SDS011;4156;50.908;6.974;2023-01-06T07:10:04;1.73;;;1.13;;
8230;SDS011;4156;50.908;6.974;2023-01-06T07:12:30;1.63;;;1.10;;
8230;SDS011;4156;50.908;6.974;2023-01-06T07:14:55;2.93;;;1.60;;
8230;SDS011;4156;50.908;6.974;2023-01-06T07:17:24;1.90;;;1.40;;
8230;SDS011;4156;50.908;6.974;2023-01-06T07:19:51;1.53;;;1.20;;
8230;SDS011;4156;50.908;6.974;2023-01-06T07:22:16;2.13;;;1.40;;
8230;SDS011;4156;50.908;6.974;2023-01-06T07:24:42;1.27;;;1.10;;
8230;SDS011;4156;50.908;6.974;2023-01-06T07:27:07;1.37;;;0.90;;
8230;SDS011;4156;50.908;6.974;2023-01-06T07:29:33;0.90;;;0.90;;
8230;SDS011;4156;50.908;6.974;2023-01-06T07:31:58;3.20;;;1.20;;
8230;SDS011;4156;50.908;6.974;2023-01-06T07:34:24;2.13;;;1.13;;
8230;SDS011;4156;50.908;6.974;2023-01-06T07:36:50;3.17;;;1.20;;
8230;SDS011;4156;50.908;6.974;2023-01-06T07:39:15;1.20;;;1.07;;
8230;SDS011;4156;50.908;6.974;2023-01-06T07:41:41;1.03;;;0.97;;
8230;SDS011;4156;50.908;6.974;2023-01-06T07:44:06;1.30;;;1.20;;
8230;SDS011;4156;50.908;6.974;2023-01-06T07:46:32;3.00;;;1.20;;
8230;SDS011;4156;50.908;6.974;2023-01-06T07:48:57;1.47;;;1.10;;
8230;SDS011;4156;50.908;6.974;2023-01-06T07:51:23;0.90;;;0.90;;
8230;SDS011;4156;50.908;6.974;2023-01-06T07:53:48;1.13;;;0.90;;
8230;SDS011;4156;50.908;6.974;2023-01-06T07:56:14;2.07;;;1.00;;
8230;SDS011;4156;50.908;6.974;2023-01-06T07:58:39;2.43;;;1.00;;
8230;SDS011;4156;50.908;6.974;2023-01-06T08:01:05;1.17;;;1.00;;
8230;SDS011;4156;50.908;6.974;2023-01-06T08:03:31;1.63;;;1.53;;
8230;SDS011;4156;50.908;6.974;2023-01-06T08:05:57;1.13;;;0.80;;
8230;SDS011;4156;50.908;6.974;2023-01-06T08:08:22;1.07;;;1.00;;
8230;SDS011;4156;50.908;6.974;2023-01-06T08:10:48;1.77;;;0.90;;
8230;SDS011;4156;50.908;6.974;2023-01-06T08:13:13;0.90;;;0.90;;
8230;SDS011;4156;50.908;6.974;2023-01-06T08:15:39;1.27;;;1.17;;
8230;SDS011;4156;50.908;6.974;2023-01-06T08:18:05;2.47;;;1.13;;
8230;SDS011;4156;50.908;6.974;2023-01-06T08:20:30;1.13;;;0.80;;
8230;SDS011;4156;50.908;6.974;2023-01-06T08:22:58;1.30;;;1.00;;
8230;SDS011;4156;50.908;6.974;2023-01-06T08:25:24;1.13;;;0.90;;
8230;SDS011;4156;50.908;6.974;2023-01-06T08:27:50;2.03;;;0.90;;
8230;SDS011;4156;50.908;6.974;2023-01-06T08:30:16;1.00;;;1.00;;
8230;SDS011;4156;50.908;6.974;2023-01-06T08:32:45;1.10;;;1.00;;
8230;SDS011;4156;50.908;6.974;2023-01-06T08:35:12;1.87;;;1.00;;
8230;SDS011;4156;50.908;6.974;2023-01-06T08:37:38;1.90;;;1.10;;
8230;SDS011;4156;50.908;6.974;2023-01-06T08:40:03;1.53;;;1.10;;
8230;SDS011;4156;50.908;6.974;2023-01-06T08:42:29;1.63;;;1.00;;
8230;SDS011;4156;50.908;6.974;2023-01-06T08:44:55;0.80;;;0.80;;
8230;SDS011;4156;50.908;6.974;2023-01-06T08:47:20;1.30;;;0.90;;
8230;SDS011;4156;50.908;6.974;2023-01-06T08:49:46;0.80;;;0.80;;
8230;SDS011;4156;50.908;6.974;2023-01-06T08:52:11;1.10;;;1.00;;
8230;SDS011;4156;50.908;6.974;2023-01-06T08:54:37;1.00;;;0.90;;
8230;SDS011;4156;50.908;6.974;2023-01-06T08:57:02;0.90;;;0.90;;
8230;SDS011;4156;50.908;6.974;2023-01-06T08:59:28;2.10;;;0.70;;
8230;SDS011;4156;50.908;6.974;2023-01-06T09:01:53;0.70;;;0.70;;
8230;SDS011;4156;50.908;6.974;2023-01-06T09:04:19;0.70;;;0.70;;
8230;SDS011;4156;50.908;6.974;2023-01-06T09:06:44;1.07;;;0.97;;
8230;SDS011;4156;50.908;6.974;2023-01-06T09:09:11;1.20;;;1.00;;
8230;SDS011;4156;50.908;6.974;2023-01-06T09:11:39;0.90;;;0.90;;
8230;SDS011;4156;50.908;6.974;2023-01-06T09:14:09;0.83;;;0.83;;
8230;SDS011;4156;50.908;6.974;2023-01-06T09:16:38;0.93;;;0.80;;
8230;SDS011;4156;50.908;6.974;2023-01-06T09:19:03;0.60;;;0.60;;
8230;SDS011;4156;50.908;6.974;2023-01-06T09:21:29;1.33;;;1.10;;
8230;SDS011;4156;50.908;6.974;2023-01-06T09:23:55;0.90;;;0.83;;
8230;SDS011;4156;50.908;6.974;2023-01-06T09:26:21;0.83;;;0.83;;
8230;SDS011;4156;50.908;6.974;2023-01-06T09:28:46;1.00;;;0.90;;
8230;SDS011;4156;50.908;6.974;2023-01-06T09:31:12;0.80;;;0.80;;
8230;SDS011;4156;50.908;6.974;2023-01-06T09:33:38;0.80;;;0.80;;
8230;SDS011;4156;50.908;6.974;2023-01-06T09:36:04;0.80;;;0.80;;
8230;SDS011;4156;50.908;6.974;2023-01-06T09:38:30;0.87;;;0.63;;
8230;SDS011;4156;50.908;6.974;2023-01-06T09:43:45;0.67;;;0.67;;
8230;SDS011;4156;50.908;6.974;2023-01-06T09:46:13;1.10;;;0.73;;
8230;SDS011;4156;50.908;6.974;2023-01-06T09:48:51;0.80;;;0.80;;
8230;SDS011;4156;50.908;6.974;2023-01-06T09:51:21;0.80;;;0.80;;
8230;SDS011;4156;50.908;6.974;2023-01-06T09:53:53;0.63;;;0.63;;
8230;SDS011;4156;50.908;6.974;2023-01-06T09:56:29;0.90;;;0.90;;
8230;SDS011;4156;50.908;6.974;2023-01-06T10:01:39;1.00;;;1.00;;
8230;SDS011;4156;50.908;6.974;2023-01-06T10:04:20;0.70;;;0.70;;
8230;SDS011;4156;50.908;6.974;2023-01-06T10:12:30;2.27;;;0.83;;
8230;SDS011;4156;50.908;6.974;2023-01-06T10:17:56;0.67;;;0.67;;
8230;SDS011;4156;50.908;6.974;2023-01-06T10:21:02;0.90;;;0.80;;
8230;SDS011;4156;50.908;6.974;2023-01-06T10:24:01;0.63;;;0.63;;
8230;SDS011;4156;50.908;6.974;2023-01-06T10:26:36;1.13;;;0.90;;
8230;SDS011;4156;50.908;6.974;2023-01-06T10:29:05;1.10;;;1.00;;
8230;SDS011;4156;50.908;6.974;2023-01-06T10:31:37;1.00;;;0.90;;
8230;SDS011;4156;50.908;6.974;2023-01-06T10:34:13;1.53;;;0.73;;
8230;SDS011;4156;50.908;6.974;2023-01-06T10:37:00;1.10;;;1.00;;
8230;SDS011;4156;50.908;6.974;2023-01-06T10:39:26;0.60;;;0.60;;
8230;SDS011;4156;50.908;6.974;2023-01-06T10:45:14;1.10;;;0.80;;
8230;SDS011;4156;50.908;6.974;2023-01-06T10:47:41;1.00;;;0.90;;
8230;SDS011;4156;50.908;6.974;2023-01-06T10:50:14;1.30;;;0.90;;
8230;SDS011;4156;50.908;6.974;2023-01-06T10:52:42;1.00;;;0.80;;
8230;SDS011;4156;50.908;6.974;2023-01-06T10:55:09;0.80;;;0.80;;
8230;SDS011;4156;50.908;6.974;2023-01-06T10:57:52;0.70;;;0.70;;
8230;SDS011;4156;50.908;6.974;2023-01-06T11:00:22;0.70;;;0.70;;
8230;SDS011;4156;50.908;6.974;2023-01-06T11:02:49;0.73;;;0.73;;
8230;SDS011;4156;50.908;6.974;2023-01-06T11:05:18;0.87;;;0.80;;
8230;SDS011;4156;50.908;6.974;2023-01-06T11:08:06;1.20;;;0.80;;
8230;SDS011;4156;50.908;6.974;2023-01-06T11:10:37;0.80;;;0.80;;
8230;SDS011;4156;50.908;6.974;2023-01-06T11:13:30;0.80;;;0.80;;
8230;SDS011;4156;50.908;6.974;2023-01-06T11:15:58;0.80;;;0.80;;
8230;SDS011;4156;50.908;6.974;2023-01-06T11:18:28;1.23;;;1.10;;
8230;SDS011;4156;50.908;6.974;2023-01-06T11:21:00;0.97;;;0.90;;
8230;SDS011;4156;50.908;6.974;2023-01-06T11:23:38;0.70;;;0.70;;
8230;SDS011;4156;50.908;6.974;2023-01-06T11:26:13;2.00;;;0.93;;
8230;SDS011;4156;50.908;6.974;2023-01-06T11:28:47;0.93;;;0.93;;
8230;SDS011;4156;50.908;6.974;2023-01-06T11:31:18;1.27;;;0.93;;
8230;SDS011;4156;50.908;6.974;2023-01-06T11:33:51;0.93;;;0.93;;
8230;SDS011;4156;50.908;6.974;2023-01-06T11:36:20;1.10;;;0.73;;
8230;SDS011;4156;50.908;6.974;2023-01-06T11:41:19;1.37;;;1.00;;
8230;SDS011;4156;50.908;6.974;2023-01-06T11:43:48;0.70;;;0.70;;
8230;SDS011;4156;50.908;6.974;2023-01-06T11:46:16;1.00;;;1.00;;
8230;SDS011;4156;50.908;6.974;2023-01-06T11:48:47;1.53;;;0.77;;
8230;SDS011;4156;50.908;6.974;2023-01-06T11:51:30;1.00;;;1.00;;
8230;SDS011;4156;50.908;6.974;2023-01-06T11:54:20;0.80;;;0.80;;
8230;SDS011;4156;50.908;6.974;2023-01-06T11:56:59;0.80;;;0.80;;
8230;SDS011;4156;50.908;6.974;2023-01-06T11:59:44;0.70;;;0.70;;
8230;SDS011;4156;50.908;6.974;2023-01-06T12:02:30;0.97;;;0.80;;
8230;SDS011;4156;50.908;6.974;2023-01-06T12:05:15;0.80;;;0.80;;
8230;SDS011;4156;50.908;6.974;2023-01-06T12:07:50;0.70;;;0.70;;
8230;SDS011;4156;50.908;6.974;2023-01-06T12:10:21;0.90;;;0.90;;
8230;SDS011;4156;50.908;6.974;2023-01-06T12:12:51;1.10;;;1.00;;
8230;SDS011;4156;50.908;6.974;2023-01-06T12:15:17;0.83;;;0.83;;
8230;SDS011;4156;50.908;6.974;2023-01-06T12:20:21;1.07;;;0.97;;
8230;SDS011;4156;50.908;6.974;2023-01-06T12:22:54;1.43;;;0.93;;
8230;SDS011;4156;50.908;6.974;2023-01-06T12:25:26;1.00;;;1.00;;
8230;SDS011;4156;50.908;6.974;2023-01-06T12:28:05;1.90;;;1.10;;
8230;SDS011;4156;50.908;6.974;2023-01-06T12:30:37;0.83;;;0.83;;
8230;SDS011;4156;50.908;6.974;2023-01-06T12:33:13;1.17;;;0.90;;
8230;SDS011;4156;50.908;6.974;2023-01-06T12:35:47;1.20;;;1.10;;
8230;SDS011;4156;50.908;6.974;2023-01-06T12:38:20;1.43;;;0.90;;
8230;SDS011;4156;50.908;6.974;2023-01-06T12:41:11;2.10;;;1.13;;
8230;SDS011;4156;50.908;6.974;2023-01-06T12:44:04;1.87;;;1.00;;
8230;SDS011;4156;50.908;6.974;2023-01-06T12:47:19;0.80;;;0.80;;
8230;SDS011;4156;50.908;6.974;2023-01-06T12:50:02;1.30;;;1.20;;
8230;SDS011;4156;50.908;6.974;2023-01-06T12:52:44;1.53;;;1.07;;
8230;SDS011;4156;50.908;6.974;2023-01-06T12:55:18;1.47;;;1.33;;
8230;SDS011;4156;50.908;6.974;2023-01-06T12:57:53;1.10;;;1.00;;
8230;SDS011;4156;50.908;6.974;2023-01-06T13:00:39;1.00;;;1.00;;
8230;SDS011;4156;50.908;6.974;2023-01-06T13:11:37;3.50;;;1.57;;
8230;SDS011;4156;50.908;6.974;2023-01-06T13:14:26;0.90;;;0.90;;
8230;SDS011;4156;50.908;6.974;2023-01-06T13:17:15;5.17;;;1.07;;
8230;SDS011;4156;50.908;6.974;2023-01-06T13:19:53;1.80;;;1.00;;
8230;SDS011;4156;50.908;6.974;2023-01-06T13:23:07;1.07;;;1.07;;
8230;SDS011;4156;50.908;6.974;2023-01-06T13:25:45;1.10;;;1.00;;
8230;SDS011;4156;50.908;6.974;2023-01-06T13:28:44;1.50;;;1.20;;
8230;SDS011;4156;50.908;6.974;2023-01-06T13:42:29;1.43;;;1.30;;
8230;SDS011;4156;50.908;6.974;2023-01-06T13:44:59;3.33;;;1.30;;
8230;SDS011;4156;50.908;6.974;2023-01-06T13:47:26;1.27;;;1.10;;
8230;SDS011;4156;50.908;6.974;2023-01-06T13:49:51;1.40;;;1.30;;
8230;SDS011;4156;50.908;6.974;2023-01-06T13:52:19;1.20;;;0.93;;
8230;SDS011;4156;50.908;6.974;2023-01-06T13:59:49;2.27;;;1.13;;
8230;SDS011;4156;50.908;6.974;2023-01-06T14:08:13;0.90;;;0.90;;
8230;SDS011;4156;50.908;6.974;2023-01-06T14:10:42;0.80;;;0.80;;
8230;SDS011;4156;50.908;6.974;2023-01-06T14:15:54;1.27;;;0.90;;
8230;SDS011;4156;50.908;6.974;2023-01-06T14:19:02;1.50;;;1.20;;
8230;SDS011;4156;50.908;6.974;2023-01-06T14:21:27;0.90;;;0.90;;
8230;SDS011;4156;50.908;6.974;2023-01-06T14:34:39;1.00;;;1.00;;
8230;SDS011;4156;50.908;6.974;2023-01-06T14:37:11;3.53;;;1.13;;
8230;SDS011;4156;50.908;6.974;2023-01-06T14:39:39;1.20;;;1.10;;
8230;SDS011;4156;50.908;6.974;2023-01-06T14:42:27;1.20;;;1.10;;
8230;SDS011;4156;50.908;6.974;2023-01-06T14:44:59;1.30;;;1.20;;
8230;SDS011;4156;50.908;6.974;2023-01-06T14:47:37;1.00;;;1.00;;
8230;SDS011;4156;50.908;6.974;2023-01-06T14:50:08;3.07;;;1.83;;
8230;SDS011;4156;50.908;6.974;2023-01-06T14:52:52;1.70;;;1.30;;
8230;SDS011;4156;50.908;6.974;2023-01-06T14:55:25;1.60;;;1.27;;
8230;SDS011;4156;50.908;6.974;2023-01-06T14:57:53;1.40;;;1.30;;
8230;SDS011;4156;50.908;6.974;2023-01-06T15:00:29;2.13;;;1.37;;
8230;SDS011;4156;50.908;6.974;2023-01-06T15:03:03;3.23;;;1.70;;
8230;SDS011;4156;50.908;6.974;2023-01-06T15:05:41;1.93;;;1.60;;
8230;SDS011;4156;50.908;6.974;2023-01-06T15:10:36;1.70;;;1.37;;
8230;SDS011;4156;50.908;6.974;2023-01-06T15:13:20;3.27;;;1.40;;
8230;SDS011;4156;50.908;6.974;2023-01-06T15:15:58;2.23;;;1.67;;
8230;SDS011;4156;50.908;6.974;2023-01-06T15:18:31;2.03;;;1.60;;
8230;SDS011;4156;50.908;6.974;2023-01-06T15:20:58;2.63;;;1.70;;
8230;SDS011;4156;50.908;6.974;2023-01-06T15:23:25;1.70;;;1.60;;
8230;SDS011;4156;50.908;6.974;2023-01-06T15:25:52;2.00;;;1.60;;
8230;SDS011;4156;50.908;6.974;2023-01-06T15:28:30;3.57;;;3.07;;
8230;SDS011;4156;50.908;6.974;2023-01-06T15:30:59;2.07;;;1.53;;
8230;SDS011;4156;50.908;6.974;2023-01-06T15:33:43;1.93;;;1.40;;
8230;SDS011;4156;50.908;6.974;2023-01-06T15:36:10;2.50;;;1.50;;
8230;SDS011;4156;50.908;6.974;2023-01-06T15:38:43;1.60;;;1.50;;
8230;SDS011;4156;50.908;6.974;2023-01-06T15:41:10;1.53;;;1.43;;
8230;SDS011;4156;50.908;6.974;2023-01-06T15:43:56;1.73;;;1.53;;
8230;SDS011;4156;50.908;6.974;2023-01-06T15:46:22;3.10;;;1.60;;
8230;SDS011;4156;50.908;6.974;2023-01-06T15:48:48;1.60;;;1.50;;
8230;SDS011;4156;50.908;6.974;2023-01-06T15:51:16;2.63;;;1.50;;
8230;SDS011;4156;50.908;6.974;2023-01-06T15:53:45;2.87;;;1.53;;
8230;SDS011;4156;50.908;6.974;2023-01-06T15:56:23;2.50;;;1.60;;
8230;SDS011;4156;50.908;6.974;2023-01-06T15:58:51;1.57;;;1.47;;
8230;SDS011;4156;50.908;6.974;2023-01-06T16:01:20;1.50;;;1.40;;
8230;SDS011;4156;50.908;6.974;2023-01-06T16:03:57;1.60;;;1.50;;
8230;SDS011;4156;50.908;6.974;2023-01-06T16:06:26;1.53;;;1.20;;
8230;SDS011;4156;50.908;6.974;2023-01-06T16:08:51;1.30;;;1.20;;
8230;SDS011;4156;50.908;6.974;2023-01-06T16:14:28;1.20;;;1.10;;
8230;SDS011;4156;50.908;6.974;2023-01-06T16:17:01;1.30;;;1.20;;
8230;SDS011;4156;50.908;6.974;2023-01-06T16:19:48;1.20;;;1.00;;
8230;SDS011;4156;50.908;6.974;2023-01-06T16:24:58;1.00;;;1.00;;
8230;SDS011;4156;50.908;6.974;2023-01-06T16:27:26;1.00;;;0.90;;
8230;SDS011;4156;50.908;6.974;2023-01-06T16:32:37;1.30;;;1.13;;
8230;SDS011;4156;50.908;6.974;2023-01-06T16:35:10;1.13;;;1.00;;
8230;SDS011;4156;50.908;6.974;2023-01-06T16:37:38;1.50;;;1.20;;
8230;SDS011;4156;50.908;6.974;2023-01-06T16:40:03;1.30;;;1.13;;
8230;SDS011;4156;50.908;6.974;2023-01-06T16:42:30;1.60;;;1.50;;
8230;SDS011;4156;50.908;6.974;2023-01-06T16:45:17;1.30;;;1.20;;
8230;SDS011;4156;50.908;6.974;2023-01-06T16:47:43;1.77;;;1.40;;
8230;SDS011;4156;50.908;6.974;2023-01-06T16:50:19;2.23;;;1.30;;
8230;SDS011;4156;50.908;6.974;2023-01-06T16:52:50;1.30;;;1.20;;
8230;SDS011;4156;50.908;6.974;2023-01-06T16:55:23;2.37;;;1.23;;
8230;SDS011;4156;50.908;6.974;2023-01-06T16:57:48;1.70;;;1.40;;
8230;SDS011;4156;50.908;6.974;2023-01-06T17:00:16;1.43;;;1.30;;
8230;SDS011;4156;50.908;6.974;2023-01-06T17:02:44;1.77;;;1.40;;
8230;SDS011;4156;50.908;6.974;2023-01-06T17:05:18;2.10;;;1.73;;
8230;SDS011;4156;50.908;6.974;2023-01-06T17:07:49;1.80;;;1.47;;
8230;SDS011;4156;50.908;6.974;2023-01-06T17:10:18;1.43;;;1.33;;
8230;SDS011;4156;50.908;6.974;2023-01-06T17:12:55;1.70;;;1.40;;
8230;SDS011;4156;50.908;6.974;2023-01-06T17:15:49;1.40;;;1.30;;
8230;SDS011;4156;50.908;6.974;2023-01-06T17:18:20;1.90;;;1.40;;
8230;SDS011;4156;50.908;6.974;2023-01-06T17:20:48;1.33;;;1.23;;
8230;SDS011;4156;50.908;6.974;2023-01-06T17:23:15;1.50;;;1.33;;
8230;SDS011;4156;50.908;6.974;2023-01-06T17:25:41;1.50;;;1.40;;
8230;SDS011;4156;50.908;6.974;2023-01-06T17:28:12;1.30;;;1.20;;